Time;durP1;ratioP1;P1;durP2;ratioP2;P2;SDS_P1;SDS_P2;PMS_P1;PMS_P2;Temp;Humidity;BMP_temperature;BMP_pressure;BME280_temperature;BME280_humidity;BME280_pressure;Samples;Min_cycle;Max_cycle;Signal;HPM_P1;HPM_P2
2023/08/18 00:01:29;;;;;;;10.57;5.97;;;23.00;99.90;;;;;;4953230;28;20103;-89
2023/08/18 00:03:56;;;;;;;8.77;6.25;;;23.00;99.90;;;;;;4953111;28;20035;-89
2023/08/18 00:06:22;;;;;;;9.05;6.35;;;23.00;99.90;;;;;;4952893;28;20031;-89
2023/08/18 00:08:47;;;;;;;9.93;6.55;;;23.00;99.90;;;;;;4937740;29;20094;-89
2023/08/18 00:11:13;;;;;;;10.48;6.25;;;22.90;99.90;;;;;;4938302;29;20053;-90
2023/08/18 00:13:39;;;;;;;8.80;6.72;;;22.90;99.90;;;;;;4937736;29;20028;-90
2023/08/18 00:16:04;;;;;;;13.50;6.65;;;22.80;99.90;;;;;;4938463;29;20027;-90
2023/08/18 00:18:30;;;;;;;10.20;6.30;;;22.80;99.90;;;;;;4953233;28;20031;-90
2023/08/18 00:20:56;;;;;;;9.30;6.65;;;22.70;99.90;;;;;;4937576;29;20042;-91
2023/08/18 00:23:21;;;;;;;10.43;7.32;;;22.70;99.90;;;;;;4953027;28;20105;-90
2023/08/18 00:25:47;;;;;;;10.38;6.63;;;22.70;99.90;;;;;;4937504;29;20043;-90
2023/08/18 00:28:13;;;;;;;11.30;6.95;;;22.60;99.90;;;;;;4937896;29;20027;-91
2023/08/18 00:30:39;;;;;;;10.13;6.35;;;22.70;99.90;;;;;;4937356;29;20047;-91
2023/08/18 00:33:04;;;;;;;10.20;6.90;;;22.70;99.90;;;;;;4936726;29;20477;-91
2023/08/18 00:35:30;;;;;;;12.15;6.57;;;22.70;99.90;;;;;;4953026;28;20031;-90
2023/08/18 00:37:56;;;;;;;8.63;6.15;;;22.70;99.90;;;;;;4937173;29;20032;-91
2023/08/18 00:40:24;;;;;;;9.65;6.13;;;22.60;99.90;;;;;;4938034;29;20087;-91
2023/08/18 00:42:50;;;;;;;9.05;6.03;;;22.60;99.90;;;;;;4937207;29;20099;-92
2023/08/18 00:45:16;;;;;;;12.10;6.90;;;22.60;99.90;;;;;;4952624;28;20043;-91
2023/08/18 00:47:42;;;;;;;9.93;6.20;;;22.60;99.90;;;;;;4936347;29;20473;-91
2023/08/18 00:50:10;;;;;;;10.25;6.60;;;22.60;99.90;;;;;;4952924;28;20032;-91
2023/08/18 00:52:38;;;;;;;9.50;6.78;;;22.60;99.90;;;;;;4936281;29;20074;-90
2023/08/18 00:55:05;;;;;;;8.32;6.13;;;22.50;99.90;;;;;;4946847;29;20051;-89
2023/08/18 00:57:31;;;;;;;11.13;6.65;;;22.50;99.90;;;;;;4970958;29;20027;-90
2023/08/18 00:59:58;;;;;;;8.60;6.57;;;22.50;99.90;;;;;;4967990;29;20027;-90
2023/08/18 01:02:24;;;;;;;9.80;6.45;;;22.50;99.90;;;;;;4968609;29;20035;-90
2023/08/18 01:04:50;;;;;;;10.45;6.03;;;22.50;99.90;;;;;;4954035;29;20031;-90
2023/08/18 01:07:15;;;;;;;8.55;6.47;;;22.50;99.90;;;;;;4968000;29;20597;-91
2023/08/18 01:09:41;;;;;;;9.85;6.85;;;22.50;99.90;;;;;;4967769;29;20457;-89
2023/08/18 01:12:13;;;;;;;8.70;6.50;;;22.40;99.90;;;;;;4969962;29;20035;-89
2023/08/18 01:15:06;;;;;;;10.60;6.43;;;22.50;99.90;;;;;;4968901;29;20063;-88
2023/08/18 01:18:03;;;;;;;9.15;6.50;;;22.50;99.90;;;;;;4974281;29;20027;-90
2023/08/18 01:20:29;;;;;;;10.73;6.10;;;22.40;99.90;;;;;;4974828;29;20084;-92
2023/08/18 01:23:02;;;;;;;11.88;7.10;;;22.40;99.90;;;;;;4956982;29;20016;-92
2023/08/18 01:25:28;;;;;;;8.95;6.50;;;22.50;99.90;;;;;;4968329;29;20035;-89
2023/08/18 01:27:55;;;;;;;12.55;6.90;;;22.40;99.90;;;;;;4957732;29;20031;-91
2023/08/18 01:30:27;;;;;;;8.93;6.57;;;22.40;99.90;;;;;;4955788;29;20062;-90
2023/08/18 01:33:03;;;;;;;10.75;5.95;;;22.40;99.90;;;;;;4956158;29;20034;-90
2023/08/18 01:35:29;;;;;;;12.23;6.53;;;22.40;99.90;;;;;;4955374;29;20027;-89
2023/08/18 01:37:57;;;;;;;8.45;6.18;;;22.40;99.90;;;;;;4954881;29;20101;-90
2023/08/18 01:40:27;;;;;;;10.88;6.50;;;22.40;99.90;;;;;;4939406;29;20503;-89
2023/08/18 01:42:53;;;;;;;8.82;6.60;;;22.40;99.90;;;;;;4955901;29;20086;-89
2023/08/18 01:45:19;;;;;;;8.23;6.43;;;22.40;99.90;;;;;;4955595;29;20460;-89
2023/08/18 01:47:44;;;;;;;15.35;6.85;;;22.30;99.90;;;;;;4955916;29;20034;-90
2023/08/18 01:50:11;;;;;;;9.70;6.57;;;22.30;99.90;;;;;;4957091;28;20030;-89
2023/08/18 01:52:37;;;;;;;9.73;6.78;;;22.20;99.90;;;;;;4959134;29;20055;-90
2023/08/18 01:55:03;;;;;;;8.75;6.75;;;22.20;99.90;;;;;;4958219;29;20074;-90
2023/08/18 01:57:28;;;;;;;15.63;7.40;;;22.10;99.90;;;;;;4960173;29;20031;-90
2023/08/18 01:59:54;;;;;;;10.73;6.93;;;22.00;99.90;;;;;;4959521;29;20527;-90
2023/08/18 02:02:19;;;;;;;9.95;7.13;;;22.00;99.90;;;;;;4959040;29;20472;-90
2023/08/18 02:04:45;;;;;;;9.07;6.70;;;22.00;99.90;;;;;;4958221;29;20198;-90
2023/08/18 02:07:10;;;;;;;8.98;6.70;;;22.00;99.90;;;;;;4942949;29;20078;-90
2023/08/18 02:09:37;;;;;;;11.70;6.72;;;22.10;99.90;;;;;;4959794;29;20031;-89
2023/08/18 02:12:03;;;;;;;8.50;6.63;;;22.00;99.90;;;;;;4958269;29;20031;-90
2023/08/18 02:14:28;;;;;;;10.30;7.00;;;22.00;99.90;;;;;;4959549;29;20025;-90
2023/08/18 02:16:55;;;;;;;11.70;6.13;;;22.00;99.90;;;;;;4942113;29;20472;-90
2023/08/18 02:19:21;;;;;;;8.25;6.50;;;22.00;99.90;;;;;;4942449;29;20115;-90
2023/08/18 02:21:47;;;;;;;11.07;6.68;;;21.90;99.90;;;;;;4941024;29;20130;-89
2023/08/18 02:24:13;;;;;;;8.00;6.20;;;21.90;99.90;;;;;;4923294;29;20044;-90
2023/08/18 02:26:38;;;;;;;9.60;6.60;;;22.00;99.90;;;;;;4940375;29;20028;-90
2023/08/18 02:29:04;;;;;;;10.07;6.57;;;21.80;99.90;;;;;;4922822;29;20030;-90
2023/08/18 02:31:29;;;;;;;11.32;6.68;;;21.80;99.90;;;;;;4923481;29;20099;-90
2023/08/18 02:33:55;;;;;;;8.68;6.22;;;21.80;99.90;;;;;;4923136;29;20027;-90
2023/08/18 02:36:21;;;;;;;9.98;6.60;;;21.70;99.90;;;;;;4923151;29;20038;-90
2023/08/18 02:38:46;;;;;;;9.00;7.05;;;21.60;99.90;;;;;;4923165;29;20464;-89
2023/08/18 02:41:12;;;;;;;9.82;6.50;;;21.70;99.90;;;;;;4922946;29;20540;-90
2023/08/18 02:43:38;;;;;;;9.13;6.50;;;21.60;99.90;;;;;;4939859;29;20381;-89
2023/08/18 02:46:04;;;;;;;8.90;6.90;;;21.60;99.90;;;;;;4922944;29;20059;-88
2023/08/18 02:48:30;;;;;;;10.00;6.70;;;21.50;99.90;;;;;;4940477;29;20055;-88
2023/08/18 02:51:08;;;;;;;7.72;6.22;;;21.50;99.90;;;;;;4922884;29;20056;-87
2023/08/18 02:53:35;;;;;;;8.18;5.93;;;21.50;99.90;;;;;;4923132;29;20023;-88
2023/08/18 02:56:02;;;;;;;8.50;5.95;;;21.50;99.90;;;;;;4928702;29;20055;-88
2023/08/18 02:58:28;;;;;;;9.98;6.40;;;21.50;99.90;;;;;;4939103;29;20071;-88
2023/08/18 03:01:05;;;;;;;12.50;6.53;;;21.50;99.90;;;;;;4938887;29;20054;-88
2023/08/18 03:03:30;;;;;;;9.85;6.18;;;21.50;99.90;;;;;;4954592;29;20032;-87
2023/08/18 03:06:04;;;;;;;10.52;5.95;;;21.50;99.90;;;;;;4939434;29;20059;-87
2023/08/18 03:08:30;;;;;;;8.23;5.90;;;21.50;99.90;;;;;;4954776;29;20032;-88
2023/08/18 03:10:57;;;;;;;7.10;6.10;;;21.40;99.90;;;;;;4939064;29;20074;-88
2023/08/18 03:13:23;;;;;;;10.75;6.25;;;21.40;99.90;;;;;;4939460;29;20031;-88
2023/08/18 03:15:49;;;;;;;10.15;6.55;;;21.40;99.90;;;;;;4937557;29;20027;-88
2023/08/18 03:18:14;;;;;;;12.23;6.55;;;21.40;99.90;;;;;;4938616;29;20030;-88
2023/08/18 03:20:40;;;;;;;10.82;5.88;;;21.40;99.90;;;;;;4939308;29;20027;-88
2023/08/18 03:23:06;;;;;;;8.77;6.05;;;21.30;99.90;;;;;;4938808;29;20552;-88
2023/08/18 03:25:31;;;;;;;9.23;6.07;;;21.30;99.90;;;;;;4939336;29;20036;-89
2023/08/18 03:27:57;;;;;;;9.35;6.07;;;21.20;99.90;;;;;;4939255;29;20591;-88
2023/08/18 03:30:23;;;;;;;11.32;6.40;;;21.20;99.90;;;;;;4954004;29;20027;-89
2023/08/18 03:32:50;;;;;;;10.48;6.35;;;21.20;99.90;;;;;;4953645;29;20032;-86
2023/08/18 03:35:16;;;;;;;8.13;5.95;;;21.20;99.90;;;;;;4939524;29;20032;-90
2023/08/18 03:37:41;;;;;;;10.13;5.82;;;21.20;99.90;;;;;;4938021;29;20047;-89
2023/08/18 03:40:08;;;;;;;10.13;6.10;;;21.10;99.90;;;;;;4937461;29;20469;-90
2023/08/18 03:42:33;;;;;;;7.35;5.57;;;21.10;99.90;;;;;;4938066;29;20031;-90
2023/08/18 03:44:59;;;;;;;8.82;5.93;;;21.10;99.90;;;;;;4937535;29;20035;-90
2023/08/18 03:47:25;;;;;;;8.57;5.80;;;21.00;99.90;;;;;;4938836;29;20028;-90
2023/08/18 03:49:50;;;;;;;8.07;5.53;;;21.00;99.90;;;;;;4938553;29;20024;-89
2023/08/18 03:52:16;;;;;;;8.50;6.05;;;21.00;99.90;;;;;;4953673;29;20046;-90
2023/08/18 03:54:42;;;;;;;8.07;6.10;;;21.00;99.90;;;;;;4937692;29;20039;-89
2023/08/18 03:57:08;;;;;;;8.40;5.75;;;21.00;99.90;;;;;;4937491;29;20070;-88
2023/08/18 03:59:33;;;;;;;8.93;5.85;;;20.90;99.90;;;;;;4953852;29;20067;-89
2023/08/18 04:01:59;;;;;;;10.88;6.05;;;20.80;99.90;;;;;;4938197;29;20042;-89
2023/08/18 04:04:24;;;;;;;8.05;5.78;;;20.80;99.90;;;;;;4953521;29;20078;-88
2023/08/18 04:06:50;;;;;;;9.80;6.00;;;20.80;99.90;;;;;;4953461;29;20028;-87
2023/08/18 04:09:16;;;;;;;9.82;6.18;;;20.80;99.90;;;;;;4937540;29;20453;-89
2023/08/18 04:11:43;;;;;;;11.70;6.18;;;20.90;99.90;;;;;;4938658;29;20091;-88
2023/08/18 04:14:09;;;;;;;8.07;5.45;;;20.90;99.90;;;;;;4951984;28;20686;-89
2023/08/18 04:16:35;;;;;;;8.68;5.78;;;20.90;99.90;;;;;;4953298;29;20366;-88
2023/08/18 04:19:01;;;;;;;6.72;5.78;;;20.90;99.90;;;;;;4952118;29;20035;-88
2023/08/18 04:21:27;;;;;;;7.63;5.47;;;20.90;99.90;;;;;;4937319;29;20031;-88
2023/08/18 04:23:52;;;;;;;7.20;5.70;;;21.00;99.90;;;;;;4952902;29;20028;-87
2023/08/18 04:26:19;;;;;;;8.15;5.43;;;21.00;99.90;;;;;;4938447;29;20055;-89
2023/08/18 04:28:45;;;;;;;9.60;6.22;;;20.90;99.90;;;;;;4953149;29;20036;-88
2023/08/18 04:31:11;;;;;;;10.57;5.68;;;20.90;99.90;;;;;;4952542;29;20023;-88
2023/08/18 04:33:36;;;;;;;7.60;5.45;;;20.90;99.90;;;;;;4953040;29;20037;-89
2023/08/18 04:36:03;;;;;;;8.90;5.75;;;20.90;99.90;;;;;;4952691;29;20032;-88
2023/08/18 04:38:29;;;;;;;9.68;5.38;;;20.90;99.90;;;;;;4936901;29;20095;-89
2023/08/18 04:40:59;;;;;;;9.38;5.50;;;20.90;99.90;;;;;;4936491;29;20032;-88
2023/08/18 04:43:26;;;;;;;7.65;5.32;;;20.90;99.90;;;;;;4952776;29;20484;-88
2023/08/18 04:45:52;;;;;;;6.15;4.72;;;20.90;99.90;;;;;;4937549;29;20091;-88
2023/08/18 04:48:19;;;;;;;6.53;5.00;;;20.90;99.90;;;;;;4953005;29;20032;-88
2023/08/18 04:50:45;;;;;;;5.72;4.80;;;20.80;99.90;;;;;;4952588;29;20091;-88
2023/08/18 04:53:10;;;;;;;6.28;5.15;;;20.80;99.90;;;;;;4937569;29;20114;-88
2023/08/18 04:55:36;;;;;;;6.22;4.47;;;20.80;99.90;;;;;;4952347;29;20059;-88
2023/08/18 04:58:02;;;;;;;8.40;5.10;;;20.90;99.90;;;;;;4936353;29;20028;-89
2023/08/18 05:00:28;;;;;;;8.20;4.82;;;20.90;99.90;;;;;;4937487;29;20194;-88
2023/08/18 05:02:54;;;;;;;6.07;4.50;;;20.90;99.90;;;;;;4937043;29;20051;-87
2023/08/18 05:05:20;;;;;;;7.13;4.78;;;20.90;99.90;;;;;;4937672;29;20039;-89
2023/08/18 05:07:45;;;;;;;7.00;4.57;;;20.80;99.90;;;;;;4937459;29;20203;-88
2023/08/18 05:10:12;;;;;;;5.93;4.70;;;20.80;99.90;;;;;;4935758;29;20023;-89
2023/08/18 05:12:37;;;;;;;8.63;4.70;;;20.80;99.90;;;;;;4937359;29;20063;-88
2023/08/18 05:15:04;;;;;;;6.57;5.05;;;20.80;99.90;;;;;;4951854;29;20027;-88
2023/08/18 05:17:29;;;;;;;7.68;4.75;;;20.80;99.90;;;;;;4952475;29;20032;-88
2023/08/18 05:19:55;;;;;;;9.68;5.05;;;20.80;99.90;;;;;;4935828;29;20074;-87
2023/08/18 05:22:21;;;;;;;8.43;5.05;;;20.80;99.90;;;;;;4936241;29;20039;-88
2023/08/18 05:24:48;;;;;;;6.75;5.13;;;20.70;99.90;;;;;;4935939;29;20050;-89
2023/08/18 05:27:14;;;;;;;8.95;5.07;;;20.70;99.90;;;;;;4936832;29;20143;-88
2023/08/18 05:29:40;;;;;;;9.05;5.22;;;20.70;99.90;;;;;;4952109;29;20034;-89
2023/08/18 05:32:05;;;;;;;7.85;4.78;;;20.70;99.90;;;;;;4951888;29;20027;-88
2023/08/18 05:34:31;;;;;;;6.70;5.10;;;20.70;99.90;;;;;;4952240;29;20540;-89
2023/08/18 05:36:57;;;;;;;6.45;4.63;;;20.70;99.90;;;;;;4936963;29;20038;-87
2023/08/18 05:39:22;;;;;;;8.65;4.82;;;20.70;99.90;;;;;;4937125;29;20480;-89
2023/08/18 05:41:48;;;;;;;8.13;4.90;;;20.80;99.90;;;;;;4936014;29;20034;-89
2023/08/18 05:44:13;;;;;;;8.43;4.40;;;20.80;99.90;;;;;;4935634;29;20091;-88
2023/08/18 05:46:39;;;;;;;9.35;5.05;;;20.80;99.90;;;;;;4937205;29;20035;-88
2023/08/18 05:49:05;;;;;;;7.05;4.22;;;20.90;99.90;;;;;;4935916;29;20131;-89
2023/08/18 05:51:31;;;;;;;6.95;4.50;;;20.90;99.90;;;;;;4952031;29;20059;-89
2023/08/18 05:53:57;;;;;;;6.18;4.70;;;21.00;99.90;;;;;;4935661;29;20035;-87
2023/08/18 05:56:22;;;;;;;9.52;4.97;;;21.00;99.90;;;;;;4936629;29;20062;-88
2023/08/18 05:58:48;;;;;;;5.75;4.20;;;20.90;99.90;;;;;;4936952;29;20051;-89
2023/08/18 06:01:14;;;;;;;10.23;4.82;;;21.00;99.90;;;;;;4935212;29;20613;-88
2023/08/18 06:03:41;;;;;;;5.60;4.55;;;21.00;99.90;;;;;;4952042;29;20075;-88
2023/08/18 06:06:06;;;;;;;7.70;4.35;;;21.00;99.90;;;;;;4936430;29;20042;-88
2023/08/18 06:08:32;;;;;;;8.38;4.57;;;21.00;99.90;;;;;;4935798;29;20032;-89
2023/08/18 06:10:58;;;;;;;4.95;4.18;;;21.00;99.90;;;;;;4935768;29;20071;-88
2023/08/18 06:13:23;;;;;;;7.95;4.10;;;21.00;99.90;;;;;;4951479;29;20024;-89
2023/08/18 06:15:52;;;;;;;10.50;4.35;;;21.10;99.90;;;;;;4936872;29;20087;-88
2023/08/18 06:18:18;;;;;;;7.72;4.10;;;21.10;99.90;;;;;;4936422;29;20105;-89
2023/08/18 06:20:45;;;;;;;6.97;4.22;;;21.10;99.90;;;;;;4951593;29;20032;-88
2023/08/18 06:23:11;;;;;;;9.15;4.20;;;21.10;99.90;;;;;;4936355;29;20040;-89
2023/08/18 06:25:36;;;;;;;7.00;4.43;;;21.10;99.90;;;;;;4935606;29;20042;-89
2023/08/18 06:28:02;;;;;;;8.07;4.32;;;21.10;99.90;;;;;;4935074;29;20440;-88
2023/08/18 06:30:28;;;;;;;7.85;4.13;;;21.10;99.90;;;;;;4951512;29;20032;-89
2023/08/18 06:32:53;;;;;;;9.43;4.18;;;21.20;99.90;;;;;;4956151;29;20059;-89
2023/08/18 06:35:19;;;;;;;7.43;4.40;;;21.20;99.90;;;;;;4958448;29;20039;-88
2023/08/18 06:37:45;;;;;;;6.32;3.55;;;21.20;99.90;;;;;;4950073;29;20024;-88
2023/08/18 06:40:10;;;;;;;8.05;4.03;;;21.20;99.90;;;;;;4946732;29;20040;-88
2023/08/18 06:42:36;;;;;;;5.53;3.90;;;21.30;99.90;;;;;;4951258;29;20031;-87
2023/08/18 06:45:03;;;;;;;8.63;4.43;;;21.30;99.90;;;;;;4962065;29;20362;-87
2023/08/18 06:47:29;;;;;;;7.03;3.60;;;21.40;99.90;;;;;;4947297;29;20028;-88
2023/08/18 06:49:55;;;;;;;5.90;3.67;;;21.40;99.90;;;;;;4962726;29;20372;-87
2023/08/18 06:52:20;;;;;;;5.32;3.85;;;21.40;99.90;;;;;;4946548;29;20044;-87
2023/08/18 06:54:47;;;;;;;6.05;3.72;;;21.40;99.90;;;;;;4946119;29;20460;-87
2023/08/18 06:57:12;;;;;;;7.60;3.78;;;21.40;99.90;;;;;;4960786;29;20032;-87
2023/08/18 06:59:38;;;;;;;8.68;3.95;;;21.50;99.90;;;;;;4943850;29;20028;-87
2023/08/18 07:02:04;;;;;;;5.53;3.38;;;21.50;99.90;;;;;;4954751;29;20036;-89
2023/08/18 07:04:29;;;;;;;8.70;3.47;;;21.50;99.90;;;;;;4955578;29;20060;-89
2023/08/18 07:06:55;;;;;;;7.93;3.70;;;21.50;99.90;;;;;;4940480;29;20028;-88
2023/08/18 07:09:20;;;;;;;6.78;3.78;;;21.60;99.90;;;;;;4954668;29;20512;-89
2023/08/18 07:11:46;;;;;;;8.73;3.85;;;21.60;99.90;;;;;;4954572;29;20066;-89
2023/08/18 07:14:12;;;;;;;7.55;3.60;;;21.50;99.90;;;;;;4938426;29;20023;-88
2023/08/18 07:16:38;;;;;;;7.22;3.50;;;21.60;99.90;;;;;;4938388;29;20540;-88
2023/08/18 07:19:03;;;;;;;4.78;3.55;;;21.60;99.90;;;;;;4953839;29;20047;-88
2023/08/18 07:21:29;;;;;;;5.40;3.58;;;21.60;99.90;;;;;;4954567;29;20028;-89
2023/08/18 07:23:55;;;;;;;6.53;3.50;;;21.60;99.90;;;;;;4938558;29;20085;-89
2023/08/18 07:26:20;;;;;;;5.93;3.47;;;21.60;99.90;;;;;;4938116;29;20028;-88
2023/08/18 07:28:46;;;;;;;5.47;3.67;;;21.70;99.90;;;;;;4938378;29;20040;-89
2023/08/18 07:31:11;;;;;;;3.95;3.00;;;21.70;99.90;;;;;;4953658;29;20120;-89
2023/08/18 07:33:37;;;;;;;6.20;3.42;;;21.80;99.90;;;;;;4954158;29;20126;-89
2023/08/18 07:36:03;;;;;;;5.10;3.40;;;21.80;99.90;;;;;;4953622;29;20070;-88
2023/08/18 07:38:33;;;;;;;4.80;3.45;;;21.90;99.90;;;;;;4953733;29;20035;-89
2023/08/18 07:40:59;;;;;;;4.20;3.40;;;21.90;99.90;;;;;;4938115;29;20039;-86
2023/08/18 07:43:24;;;;;;;5.22;3.40;;;21.90;99.90;;;;;;4938039;29;20062;-88
2023/08/18 07:45:50;;;;;;;4.00;3.00;;;21.90;99.90;;;;;;4955074;29;20031;-88
2023/08/18 07:48:16;;;;;;;6.22;3.10;;;21.90;99.90;;;;;;4938334;29;20413;-91
2023/08/18 07:50:42;;;;;;;5.10;2.85;;;22.00;99.90;;;;;;4938980;29;20032;-91
2023/08/18 07:53:08;;;;;;;4.80;3.20;;;22.00;99.90;;;;;;4939577;29;20047;-88
2023/08/18 07:55:33;;;;;;;7.10;3.63;;;22.00;99.90;;;;;;4938669;29;20106;-89
2023/08/18 07:57:59;;;;;;;6.05;3.30;;;22.10;99.90;;;;;;4939329;29;20083;-90
2023/08/18 08:00:26;;;;;;;4.53;3.33;;;22.10;99.90;;;;;;4939006;29;20031;-91
2023/08/18 08:02:52;;;;;;;6.35;3.17;;;22.10;99.90;;;;;;4938757;29;20095;-89
2023/08/18 08:05:19;;;;;;;4.13;3.35;;;22.10;99.90;;;;;;4939378;29;20032;-88
2023/08/18 08:07:45;;;;;;;7.75;3.30;;;22.20;99.90;;;;;;4940532;29;20024;-92
2023/08/18 08:10:11;;;;;;;4.00;2.95;;;22.20;99.90;;;;;;4941047;29;20024;-91
2023/08/18 08:12:38;;;;;;;5.95;3.00;;;22.30;99.90;;;;;;4939779;29;20052;-93
2023/08/18 08:15:04;;;;;;;5.38;3.20;;;22.20;99.90;;;;;;4939154;29;20028;-90
2023/08/18 08:17:30;;;;;;;5.68;3.17;;;22.30;99.90;;;;;;4940129;29;20039;-90
2023/08/18 08:19:57;;;;;;;6.88;3.08;;;22.30;99.90;;;;;;4939189;29;20028;-89
2023/08/18 08:22:23;;;;;;;5.13;3.00;;;22.40;99.90;;;;;;4938042;29;20039;-90
2023/08/18 08:24:50;;;;;;;5.05;3.22;;;22.40;99.90;;;;;;4940724;29;20112;-89
2023/08/18 08:27:16;;;;;;;4.93;3.17;;;22.40;99.90;;;;;;4938199;29;20059;-90
2023/08/18 08:29:42;;;;;;;5.25;2.95;;;22.50;99.90;;;;;;4938424;29;20031;-90
2023/08/18 08:32:07;;;;;;;5.90;2.83;;;22.50;99.90;;;;;;4939603;29;20039;-90
2023/08/18 08:34:33;;;;;;;6.35;3.35;;;22.60;99.90;;;;;;4939283;29;20027;-89
2023/08/18 08:36:58;;;;;;;5.90;3.30;;;22.60;99.90;;;;;;4939171;29;20035;-87
2023/08/18 08:39:24;;;;;;;5.05;2.72;;;22.70;99.90;;;;;;4939526;29;20146;-89
2023/08/18 08:41:50;;;;;;;6.03;3.15;;;22.60;99.90;;;;;;4939243;29;20366;-92
2023/08/18 08:44:15;;;;;;;5.22;2.90;;;22.60;99.90;;;;;;4937895;29;20028;-90
2023/08/18 08:46:42;;;;;;;4.60;2.95;;;22.70;99.90;;;;;;4939370;29;20024;-89
2023/08/18 08:49:08;;;;;;;5.38;3.30;;;22.90;99.90;;;;;;4937898;29;20028;-89
2023/08/18 08:51:37;;;;;;;4.05;2.80;;;22.90;99.90;;;;;;4938298;29;20056;-88
2023/08/18 08:54:06;;;;;;;5.78;3.10;;;22.90;99.90;;;;;;4939663;29;20079;-89
2023/08/18 08:56:34;;;;;;;6.90;3.38;;;23.00;99.90;;;;;;4938441;29;20090;-91
2023/08/18 08:59:00;;;;;;;11.25;4.72;;;23.00;99.90;;;;;;4938835;29;20055;-92
2023/08/18 09:01:26;;;;;;;7.38;4.60;;;23.00;99.90;;;;;;4938688;29;20228;-93
2023/08/18 09:03:53;;;;;;;4.70;3.65;;;23.00;99.90;;;;;;4938984;29;20036;-92
2023/08/18 09:06:19;;;;;;;15.48;10.05;;;23.00;99.90;;;;;;4939347;29;20103;-92
2023/08/18 09:08:44;;;;;;;11.70;9.32;;;23.00;99.90;;;;;;4940515;29;20461;-93
2023/08/18 09:11:10;;;;;;;4.88;3.40;;;23.00;99.90;;;;;;4939961;29;20027;-90
2023/08/18 09:13:36;;;;;;;6.63;3.40;;;23.20;99.90;;;;;;4938264;29;20386;-90
2023/08/18 09:16:06;;;;;;;7.60;2.83;;;23.20;99.90;;;;;;4939687;29;20474;-90
2023/08/18 09:18:33;;;;;;;3.80;3.15;;;23.10;99.90;;;;;;4940236;29;20028;-93
2023/08/18 09:21:04;;;;;;;4.85;2.90;;;23.20;99.90;;;;;;4938970;29;20023;-95
2023/08/18 09:23:29;;;;;;;4.10;2.60;;;23.20;99.90;;;;;;4938886;29;20035;-90
2023/08/18 09:25:59;;;;;;;4.10;3.05;;;23.30;99.90;;;;;;4938405;29;20445;-93
2023/08/18 09:28:29;;;;;;;4.95;2.85;;;23.30;99.90;;;;;;4938535;29;20305;-92
2023/08/18 09:30:54;;;;;;;5.20;3.03;;;23.40;99.90;;;;;;4939308;29;20549;-91
2023/08/18 09:33:23;;;;;;;3.55;2.72;;;23.40;99.90;;;;;;4937432;29;20059;-90
2023/08/18 09:35:58;;;;;;;10.65;5.85;;;23.40;99.90;;;;;;4939258;29;20024;-90
2023/08/18 09:38:25;;;;;;;5.15;3.80;;;23.50;99.90;;;;;;4938612;29;20051;-91
2023/08/18 09:40:57;;;;;;;5.85;3.40;;;23.60;99.90;;;;;;4939726;29;20024;-91
2023/08/18 09:43:24;;;;;;;5.60;3.05;;;23.60;99.90;;;;;;4939532;29;20036;-91
2023/08/18 09:45:55;;;;;;;5.60;2.78;;;23.60;99.90;;;;;;4939326;29;20059;-93
2023/08/18 09:48:22;;;;;;;5.15;3.17;;;23.70;99.90;;;;;;4939243;29;20028;-92
2023/08/18 09:50:52;;;;;;;5.47;3.22;;;23.70;99.90;;;;;;4938520;29;20039;-91
2023/08/18 09:53:21;;;;;;;6.97;3.15;;;23.70;99.90;;;;;;4935758;29;20404;-92
2023/08/18 09:55:48;;;;;;;5.28;2.97;;;23.80;99.90;;;;;;4937787;29;20052;-93
2023/08/18 09:58:39;;;;;;;3.88;2.80;;;23.90;99.90;;;;;;4937283;29;20024;-93
2023/08/18 10:01:06;;;;;;;5.75;2.85;;;23.90;99.90;;;;;;4937255;29;20118;-90
2023/08/18 10:03:36;;;;;;;7.28;3.22;;;23.90;99.90;;;;;;4937591;29;20117;-90
2023/08/18 10:06:03;;;;;;;3.45;2.90;;;23.90;99.90;;;;;;4938244;29;20023;-90
2023/08/18 10:08:31;;;;;;;3.70;3.10;;;24.00;99.90;;;;;;4937722;29;20034;-90
2023/08/18 10:10:56;;;;;;;4.82;2.88;;;24.10;99.90;;;;;;4937050;29;20366;-89
2023/08/18 10:13:22;;;;;;;4.70;2.75;;;24.10;99.90;;;;;;4940522;29;20042;-89
2023/08/18 10:15:49;;;;;;;3.47;2.92;;;24.10;99.90;;;;;;4943254;29;20035;-92
2023/08/18 10:18:16;;;;;;;4.25;2.72;;;24.20;99.90;;;;;;4943212;29;20535;-90
2023/08/18 10:20:52;;;;;;;6.90;3.47;;;24.30;99.90;;;;;;4943187;29;20136;-89
2023/08/18 10:23:18;;;;;;;5.53;2.80;;;24.30;99.90;;;;;;4941181;29;20063;-89
2023/08/18 10:25:45;;;;;;;2.80;2.47;;;24.30;99.90;;;;;;4942279;29;20055;-91
2023/08/18 10:28:17;;;;;;;4.82;2.85;;;24.40;99.90;;;;;;4942548;29;20370;-91
2023/08/18 10:30:50;;;;;;;4.97;2.70;;;24.40;99.90;;;;;;4940470;29;20082;-90
2023/08/18 10:33:46;;;;;;;5.65;3.22;;;24.40;99.90;;;;;;4941843;29;20495;-90
2023/08/18 10:36:25;;;;;;;6.05;3.30;;;24.50;99.90;;;;;;4940222;29;20040;-90
2023/08/18 10:38:54;;;;;;;3.05;2.72;;;24.50;99.90;;;;;;4942364;29;20028;-90
2023/08/18 10:41:28;;;;;;;5.80;2.75;;;24.50;99.90;;;;;;4940929;29;20024;-90
2023/08/18 10:43:57;;;;;;;3.35;2.58;;;24.60;99.90;;;;;;4940657;29;20040;-90
2023/08/18 10:46:34;;;;;;;6.35;2.75;;;24.70;99.90;;;;;;4938906;29;20024;-90
2023/08/18 10:49:00;;;;;;;4.10;2.70;;;24.80;99.90;;;;;;4939992;29;20035;-89
2023/08/18 10:51:26;;;;;;;6.38;2.83;;;24.70;99.90;;;;;;4938185;29;20035;-89
2023/08/18 10:53:52;;;;;;;3.42;2.85;;;24.70;99.90;;;;;;4938552;29;20031;-89
2023/08/18 10:56:18;;;;;;;4.95;3.20;;;24.70;99.90;;;;;;4937842;29;20054;-88
2023/08/18 10:58:43;;;;;;;8.82;3.17;;;24.70;99.90;;;;;;4938559;29;20032;-89
2023/08/18 11:01:10;;;;;;;4.68;2.35;;;24.80;99.90;;;;;;4938934;29;20063;-89
2023/08/18 11:03:38;;;;;;;5.50;2.40;;;24.90;99.90;;;;;;4938804;29;20059;-88
2023/08/18 11:06:04;;;;;;;5.47;2.60;;;24.90;99.90;;;;;;4939360;29;20055;-89
2023/08/18 11:08:30;;;;;;;4.68;2.40;;;25.00;99.90;;;;;;4939329;29;20060;-89
2023/08/18 11:10:56;;;;;;;4.38;2.35;;;25.10;99.90;;;;;;4938332;29;20024;-89
2023/08/18 11:13:27;;;;;;;6.35;2.63;;;25.20;99.90;;;;;;4938884;29;20051;-89
2023/08/18 11:15:54;;;;;;;4.15;2.22;;;25.20;99.90;;;;;;4939229;29;20063;-89
2023/08/18 11:18:24;;;;;;;6.70;2.20;;;25.20;99.90;;;;;;4937930;29;20032;-88
2023/08/18 11:20:52;;;;;;;4.25;2.22;;;25.40;99.90;;;;;;4939846;29;20024;-89
2023/08/18 11:23:19;;;;;;;6.07;2.30;;;25.30;99.90;;;;;;4937497;29;20042;-89
2023/08/18 11:25:45;;;;;;;5.78;2.22;;;25.40;99.90;;;;;;4939322;29;20047;-89
2023/08/18 11:28:12;;;;;;;6.78;2.60;;;25.50;99.90;;;;;;4938043;29;20130;-89
2023/08/18 11:30:38;;;;;;;6.38;2.42;;;25.50;99.90;;;;;;4939059;29;20028;-89
2023/08/18 11:33:04;;;;;;;3.35;2.08;;;25.60;99.90;;;;;;4937968;29;20042;-89
2023/08/18 11:35:31;;;;;;;4.32;2.28;;;25.60;99.90;;;;;;4938516;29;20441;-88
2023/08/18 11:37:56;;;;;;;6.78;2.47;;;25.50;99.90;;;;;;4937501;29;20078;-89
2023/08/18 11:40:23;;;;;;;3.03;2.20;;;25.50;99.90;;;;;;4937510;29;20031;-89
2023/08/18 11:42:50;;;;;;;3.67;2.30;;;25.60;99.90;;;;;;4937705;29;20540;-89
2023/08/18 11:45:18;;;;;;;3.70;2.30;;;25.60;99.90;;;;;;4938278;29;20492;-89
2023/08/18 11:47:59;;;;;;;3.78;2.20;;;25.80;99.90;;;;;;4938052;29;20024;-89
2023/08/18 11:50:35;;;;;;;4.82;2.75;;;25.90;99.90;;;;;;4936967;29;20030;-89
2023/08/18 11:53:06;;;;;;;3.72;2.28;;;26.00;99.90;;;;;;4938473;29;20039;-88
2023/08/18 11:55:43;;;;;;;3.20;2.00;;;26.00;99.90;;;;;;4936565;29;20378;-90
2023/08/18 11:58:13;;;;;;;5.53;2.28;;;26.10;99.90;;;;;;4937084;29;20040;-92
2023/08/18 12:00:39;;;;;;;3.97;2.10;;;26.30;99.90;;;;;;4937998;29;20044;-89
2023/08/18 12:03:18;;;;;;;3.22;1.92;;;26.50;99.90;;;;;;4937482;29;20039;-88
2023/08/18 12:05:46;;;;;;;5.63;2.20;;;26.50;99.90;;;;;;4937330;29;20166;-90
2023/08/18 12:08:12;;;;;;;4.32;2.00;;;26.50;99.90;;;;;;4937039;29;20110;-90
2023/08/18 12:10:38;;;;;;;6.93;2.83;;;26.60;99.90;;;;;;4936608;29;20457;-90
2023/08/18 12:13:04;;;;;;;7.15;2.67;;;26.60;99.90;;;;;;4937622;29;20035;-90
2023/08/18 12:15:29;;;;;;;6.47;2.95;;;26.80;99.90;;;;;;4937803;29;20503;-90
2023/08/18 12:17:55;;;;;;;3.28;2.08;;;26.80;99.90;;;;;;4938461;29;20024;-89
2023/08/18 12:20:23;;;;;;;4.10;2.17;;;26.90;99.90;;;;;;4936556;29;20422;-89
2023/08/18 12:22:50;;;;;;;6.70;2.75;;;27.00;99.90;;;;;;4947752;29;20087;-89
2023/08/18 12:25:20;;;;;;;2.83;2.30;;;27.10;99.90;;;;;;4937729;29;20028;-88
2023/08/18 12:27:46;;;;;;;4.68;2.53;;;27.20;99.90;;;;;;4937004;29;20389;-91
2023/08/18 12:30:13;;;;;;;6.03;2.17;;;27.30;99.90;;;;;;4936826;29;20031;-90
2023/08/18 12:32:39;;;;;;;4.25;2.08;;;27.40;99.90;;;;;;4936363;29;20038;-90
2023/08/18 12:35:05;;;;;;;3.53;1.98;;;27.50;99.90;;;;;;4936511;29;20032;-90
2023/08/18 12:37:31;;;;;;;4.75;2.50;;;27.60;99.90;;;;;;4936322;29;20028;-90
2023/08/18 12:39:57;;;;;;;3.67;2.40;;;27.80;99.90;;;;;;4936905;29;20048;-90
2023/08/18 12:42:25;;;;;;;4.65;2.25;;;27.80;99.90;;;;;;4937158;29;20047;-89
2023/08/18 12:44:51;;;;;;;3.90;2.20;;;27.90;99.90;;;;;;4936586;29;20038;-94